Jonesboro Municipal Airport Jonesboro US
ICAO: KJBR
IATA: JBR
Category: Medium
Scheduled Services: Yes

Elevation: 262 ft
TransAlt. 18000 ft.

Airport Communications:
ASOS:118.525
MEMPHIS CNTR:120.075
CTAF:123.6
RDO:122.2
UNICOM:123

KJBR Zoom In..

If you have problems with the map follow the link
https://www.worldairports.se/pages/airport.php?
ICAO=KJBR

Runways:

(A) RW 05 length 6200 ft width 150 ft
---- / hdg 50

(B) RW 13 length 4099 ft width 150 ft
---- / hdg 135

(C) RW 23 length 6200 ft width 150 ft
ILS 110.15 / hdg 230

(D) RW 31 length 4099 ft width 150 ft
---- / hdg 315

Location; KJBR
Day. 07 / Time. 08.53 Zulu
* Altimeter: 30.34
* Temperature: 04° c. 39.2°f.
* Wind from: 020° Speed 06 kn.
Dewpoint: 01° c.
Visibility: 6 Statute Miles.
Clouds: Overcast 1400 ft.
Conditions: Haze.

KJBR 070853Z AUTO 02006KT 6SM HZ OVC014 04/01 A3034 RMK AO2 SLP272 T00440011 58001


Wind From 020°
Speed 06 kn.

 
 
jpsmedia worldairports.se 2019   terms of use